Toksook Bay, Alaska
Current Conditions -  °F | °C
As of 2:56 AM on Tuesday 27 Jan 2015 (Local Time) from PAOO Reporting Station
Light Snow Light Snow  
Wind Chill: -10°   Ceiling: 400
Heat Index:   Visibility: NA
Dew Point:   Wind: 10mph
Humidity: 80%   Direction: 330°NNW
Pressure: 29.78"   Gusts: NA
Location:  60.53°N, 165.1°W
Report Text: PAOO 271156Z AUTO 33009KT -SN BKN004 OVC012 M15/M18 A2978 RMK AO2 TSNO 50000 60000 T11501177 11144 21188 P0000 SLP088 $
Loading
Personal Weather Stations






























Interactive Weather Map New forecast layout! Learn more

10-Day Weather Forecast

Advertisements
Track Severe Weather on mobile